Time;durP1;ratioP1;P1;durP2;ratioP2;P2;SDS_P1;SDS_P2;PMS_P1;PMS_P2;Temp;Humidity;BMP_temperature;BMP_pressure;BME280_temperature;BME280_humidity;BME280_pressure;Samples;Min_cycle;Max_cycle;Signal;HPM_P1;HPM_P2
2023/06/14 00:01:02;;;;;;;8.65;4.28;;;;;;;18.47;47.91;101391.88;5053954;28;20098;-76
2023/06/14 00:03:29;;;;;;;9.20;4.15;;;;;;;18.44;48.04;101401.13;5049782;28;20048;-75
2023/06/14 00:05:54;;;;;;;9.55;5.05;;;;;;;18.46;47.99;101399.13;5046741;28;20148;-76
2023/06/14 00:08:21;;;;;;;13.07;5.30;;;;;;;18.51;47.92;101390.63;5053682;28;20561;-76
2023/06/14 00:10:47;;;;;;;14.25;4.93;;;;;;;18.34;48.29;101397.53;5054091;28;20033;-77
2023/06/14 00:13:12;;;;;;;10.15;4.53;;;;;;;18.38;48.11;101396.28;5056358;28;20041;-77
2023/06/14 00:15:40;;;;;;;12.52;5.05;;;;;;;18.32;48.67;101400.38;5061289;28;20379;-76
2023/06/14 00:18:07;;;;;;;9.10;4.78;;;;;;;18.25;49.20;101401.00;5034527;28;20037;-75
2023/06/14 00:20:33;;;;;;;11.02;4.97;;;;;;;18.11;49.86;101407.59;5035612;28;20049;-75
2023/06/14 00:22:59;;;;;;;9.23;4.50;;;;;;;18.19;49.70;101413.22;5033142;28;20051;-76
2023/06/14 00:25:25;;;;;;;7.68;4.57;;;;;;;18.24;49.49;101419.06;5034375;28;20051;-76
2023/06/14 00:27:51;;;;;;;7.07;4.55;;;;;;;18.02;50.12;101414.66;5060961;28;20558;-75
2023/06/14 00:30:17;;;;;;;11.27;5.15;;;;;;;18.02;50.77;101411.09;5050509;28;20025;-74
2023/06/14 00:32:44;;;;;;;8.00;4.03;;;;;;;18.02;50.51;101427.28;5063192;28;20980;-74
2023/06/14 00:35:11;;;;;;;13.75;5.03;;;;;;;18.04;50.15;101426.19;5069264;28;20036;-76
2023/06/14 00:37:37;;;;;;;8.98;4.55;;;;;;;18.12;49.85;101422.81;5059378;28;20069;-76
2023/06/14 00:40:04;;;;;;;10.88;5.00;;;;;;;17.94;50.66;101427.09;5054567;28;20040;-75
2023/06/14 00:42:30;;;;;;;12.85;5.03;;;;;;;18.03;50.62;101426.31;5061258;28;20116;-76
2023/06/14 00:44:56;;;;;;;7.65;3.90;;;;;;;17.98;50.42;101425.84;5036439;28;20033;-74
2023/06/14 00:47:23;;;;;;;9.48;4.78;;;;;;;17.95;51.00;101413.47;5052455;28;20155;-78
2023/06/14 00:49:53;;;;;;;13.32;4.80;;;;;;;17.83;51.57;101422.63;5071309;28;20032;-76
2023/06/14 00:52:19;;;;;;;13.60;4.70;;;;;;;17.84;51.28;101427.03;5040454;28;20075;-76
2023/06/14 00:54:45;;;;;;;7.32;4.88;;;;;;;17.64;52.02;101430.50;5070164;28;20024;-76
2023/06/14 00:57:12;;;;;;;9.93;4.43;;;;;;;17.62;52.23;101425.25;5070332;28;20032;-78
2023/06/14 00:59:47;;;;;;;8.75;5.05;;;;;;;17.59;52.75;101433.59;5045934;28;20033;-75
2023/06/14 01:02:15;;;;;;;13.77;4.75;;;;;;;17.55;52.58;101426.72;5055144;28;20039;-75
2023/06/14 01:04:47;;;;;;;8.70;4.57;;;;;;;17.50;52.53;101423.56;5051117;28;20443;-76
2023/06/14 01:07:31;;;;;;;8.80;4.32;;;;;;;17.62;52.42;101430.66;5058870;28;20033;-75
2023/06/14 01:10:20;;;;;;;9.15;4.68;;;;;;;17.63;52.59;101424.25;5052952;28;20040;-75
2023/06/14 01:13:11;;;;;;;10.63;4.95;;;;;;;17.60;52.56;101436.16;5056965;28;20033;-75
2023/06/14 01:15:40;;;;;;;10.85;4.72;;;;;;;17.69;52.61;101433.69;5032666;28;20025;-77
2023/06/14 01:18:17;;;;;;;13.43;4.43;;;;;;;17.53;53.19;101426.88;5039680;28;20041;-77
2023/06/14 01:20:44;;;;;;;17.45;4.95;;;;;;;17.36;53.61;101419.31;5049626;28;20098;-76
2023/06/14 01:23:15;;;;;;;5.75;4.13;;;;;;;17.42;53.69;101421.53;5057276;28;20136;-74
2023/06/14 01:25:44;;;;;;;8.00;5.10;;;;;;;17.37;53.85;101420.16;5034021;28;20033;-76
2023/06/14 01:28:12;;;;;;;11.88;4.95;;;;;;;17.08;54.76;101424.28;5042313;28;20033;-75
2023/06/14 01:30:47;;;;;;;10.73;4.60;;;;;;;17.23;54.59;101424.88;5039639;28;20107;-74
2023/06/14 01:33:22;;;;;;;6.25;4.68;;;;;;;17.24;54.55;101423.03;5046238;28;20130;-76
2023/06/14 01:35:51;;;;;;;11.38;4.70;;;;;;;17.10;55.06;101426.84;5066645;28;20070;-73
2023/06/14 01:38:22;;;;;;;10.60;4.22;;;;;;;17.18;54.63;101423.53;5060213;28;20138;-74
2023/06/14 01:40:50;;;;;;;7.25;4.05;;;;;;;17.07;55.18;101427.13;5065961;28;20036;-76
2023/06/14 01:43:18;;;;;;;9.27;4.32;;;;;;;17.12;55.44;101429.41;5061017;28;20029;-74
2023/06/14 01:45:46;;;;;;;7.50;4.22;;;;;;;17.04;55.61;101425.50;5069313;28;20032;-74
2023/06/14 01:48:13;;;;;;;11.75;5.03;;;;;;;17.05;55.27;101431.75;5062516;28;20194;-74
2023/06/14 01:50:41;;;;;;;8.32;5.20;;;;;;;17.01;55.38;101428.44;5067155;28;20118;-75
2023/06/14 01:53:10;;;;;;;8.30;4.95;;;;;;;16.97;56.25;101435.09;5073298;28;20052;-73
2023/06/14 01:55:43;;;;;;;9.63;4.68;;;;;;;17.07;55.88;101421.72;5075042;28;20067;-77
2023/06/14 01:58:11;;;;;;;10.77;4.78;;;;;;;16.84;56.58;101428.97;5065098;28;20049;-73
2023/06/14 02:00:37;;;;;;;7.55;4.03;;;;;;;16.85;56.40;101417.19;5064137;28;20204;-74
2023/06/14 02:03:04;;;;;;;11.98;5.32;;;;;;;16.72;57.09;101422.72;5055584;28;20104;-74
2023/06/14 02:05:30;;;;;;;11.63;4.35;;;;;;;16.87;56.55;101423.34;5069497;28;20150;-74
2023/06/14 02:07:56;;;;;;;8.10;4.95;;;;;;;16.76;57.16;101426.88;5072921;28;20025;-74
2023/06/14 02:10:22;;;;;;;8.85;4.53;;;;;;;16.78;57.14;101422.22;5064590;28;20037;-75
2023/06/14 02:12:48;;;;;;;9.13;4.88;;;;;;;16.80;57.09;101417.56;5046693;28;20124;-75
2023/06/14 02:15:16;;;;;;;13.43;5.15;;;;;;;16.63;57.79;101423.44;5064469;28;20120;-75
2023/06/14 02:17:47;;;;;;;9.32;4.57;;;;;;;16.70;57.52;101421.94;5072311;28;20115;-74
2023/06/14 02:20:13;;;;;;;5.85;4.40;;;;;;;16.62;58.10;101413.66;5063326;28;20028;-74
2023/06/14 02:22:41;;;;;;;11.00;4.38;;;;;;;16.61;58.61;101419.13;5073184;28;20040;-75
2023/06/14 02:25:09;;;;;;;10.10;4.43;;;;;;;16.54;58.25;101430.38;5080863;28;20179;-75
2023/06/14 02:27:35;;;;;;;12.63;4.43;;;;;;;16.71;57.81;101428.19;5052588;28;20036;-77
2023/06/14 02:30:03;;;;;;;8.00;4.68;;;;;;;16.57;58.72;101421.22;5079201;28;20087;-74
2023/06/14 02:32:34;;;;;;;9.10;5.32;;;;;;;16.42;59.84;101435.91;5050739;28;20040;-76
2023/06/14 02:34:59;;;;;;;13.80;4.93;;;;;;;16.49;59.13;101427.22;5076159;28;20047;-74
2023/06/14 02:37:25;;;;;;;12.65;4.95;;;;;;;16.48;59.33;101436.28;5051421;28;20150;-74
2023/06/14 02:39:52;;;;;;;11.40;4.75;;;;;;;16.53;59.37;101427.84;5065985;28;20045;-76
2023/06/14 02:42:18;;;;;;;9.30;4.45;;;;;;;16.47;60.36;101429.19;5059197;28;20039;-74
2023/06/14 02:44:45;;;;;;;13.80;5.55;;;;;;;16.30;60.61;101425.09;5077280;28;20041;-76
2023/06/14 02:47:11;;;;;;;5.57;4.47;;;;;;;16.45;60.54;101435.66;5073397;28;20119;-74
2023/06/14 02:49:37;;;;;;;11.48;4.82;;;;;;;16.47;59.96;101433.69;5065883;28;20043;-75
2023/06/14 02:52:08;;;;;;;8.50;4.05;;;;;;;16.44;59.89;101439.31;5049068;28;20036;-73
2023/06/14 02:54:36;;;;;;;10.10;4.90;;;;;;;16.39;60.31;101441.50;5055214;28;20218;-75
2023/06/14 02:57:01;;;;;;;7.60;4.95;;;;;;;16.40;60.96;101446.75;5064186;28;20099;-75
2023/06/14 02:59:27;;;;;;;7.43;4.32;;;;;;;16.37;60.45;101446.16;5067985;28;20045;-74
2023/06/14 03:01:54;;;;;;;9.20;5.10;;;;;;;16.36;60.35;101449.81;5066883;28;21106;-74
2023/06/14 03:04:20;;;;;;;11.57;5.03;;;;;;;16.41;60.50;101451.16;5039771;28;20045;-74
2023/06/14 03:06:50;;;;;;;11.35;5.18;;;;;;;16.43;60.44;101457.31;5046841;28;20044;-75
2023/06/14 03:09:16;;;;;;;9.20;4.68;;;;;;;16.47;60.63;101464.19;5052667;28;20044;-76
2023/06/14 03:11:42;;;;;;;9.65;4.80;;;;;;;16.42;60.49;101460.13;5057733;28;20968;-75
2023/06/14 03:14:11;;;;;;;9.52;4.97;;;;;;;16.34;60.80;101468.78;5058316;28;20044;-75
2023/06/14 03:16:37;;;;;;;6.93;4.55;;;;;;;16.43;60.73;101465.38;5046262;28;20087;-74
2023/06/14 03:19:03;;;;;;;6.78;4.35;;;;;;;16.43;61.13;101462.69;5043767;28;20605;-75
2023/06/14 03:21:31;;;;;;;8.68;4.72;;;;;;;16.43;60.98;101469.91;5055241;28;20088;-75
2023/06/14 03:23:58;;;;;;;14.13;5.38;;;;;;;16.33;61.81;101467.06;5032717;28;20048;-73
2023/06/14 03:26:25;;;;;;;12.20;4.72;;;;;;;16.21;62.56;101470.69;5038353;28;20029;-76
2023/06/14 03:28:52;;;;;;;12.13;5.45;;;;;;;16.48;61.94;101468.56;5033813;28;20542;-75
2023/06/14 03:31:19;;;;;;;7.68;5.40;;;;;;;16.63;61.25;101473.75;5049417;28;20036;-74
2023/06/14 03:33:45;;;;;;;7.43;4.45;;;;;;;16.88;60.45;101467.28;5052379;28;20792;-76
2023/06/14 03:36:11;;;;;;;15.68;5.30;;;;;;;16.76;60.18;101471.81;5061933;28;20068;-74
2023/06/14 03:38:36;;;;;;;12.70;4.85;;;;;;;17.16;59.98;101468.59;5059504;28;20462;-75
2023/06/14 03:41:03;;;;;;;7.93;4.03;;;;;;;17.34;59.12;101476.06;5057443;28;20045;-75
2023/06/14 03:43:30;;;;;;;10.38;4.93;;;;;;;17.69;58.43;101469.59;5059363;28;20084;-74
2023/06/14 03:45:56;;;;;;;12.60;4.55;;;;;;;18.19;57.22;101471.75;5070943;28;20060;-77
2023/06/14 03:48:23;;;;;;;12.32;4.97;;;;;;;18.59;55.42;101480.81;5058938;28;20133;-76
2023/06/14 03:50:49;;;;;;;11.52;4.78;;;;;;;18.84;55.25;101470.59;5061365;28;21029;-76
2023/06/14 03:53:15;;;;;;;11.55;4.50;;;;;;;19.51;54.40;101469.09;5037206;28;20311;-75
2023/06/14 03:55:44;;;;;;;7.80;4.72;;;;;;;20.06;53.27;101472.16;5044062;28;20754;-76
2023/06/14 03:58:11;;;;;;;5.50;4.45;;;;;;;20.56;51.28;101474.66;5059988;28;20037;-75
2023/06/14 04:00:37;;;;;;;12.75;4.93;;;;;;;20.90;50.80;101473.13;5069735;28;20631;-77
2023/06/14 04:03:06;;;;;;;8.38;5.03;;;;;;;21.12;49.82;101468.31;5053580;28;20048;-76
2023/06/14 04:05:32;;;;;;;6.43;3.80;;;;;;;20.99;48.66;101478.66;5052164;28;20048;-77
2023/06/14 04:07:59;;;;;;;7.85;4.43;;;;;;;21.77;48.45;101481.78;5066082;28;20028;-76
2023/06/14 04:10:25;;;;;;;6.50;4.25;;;;;;;22.44;47.07;101474.91;5036106;28;20032;-77
2023/06/14 04:12:51;;;;;;;8.75;4.80;;;;;;;23.06;46.05;101477.53;5053434;28;20040;-77
2023/06/14 04:15:17;;;;;;;6.32;4.40;;;;;;;23.67;44.62;101479.13;5060334;28;20135;-74
2023/06/14 04:17:43;;;;;;;9.60;4.70;;;;;;;23.93;43.74;101482.56;5060665;28;20132;-74
2023/06/14 04:20:10;;;;;;;15.07;5.15;;;;;;;24.17;43.91;101486.31;5059615;28;20673;-74
2023/06/14 04:22:36;;;;;;;12.57;4.60;;;;;;;24.57;44.07;101484.63;5035280;28;20939;-76
2023/06/14 04:25:05;;;;;;;7.78;4.05;;;;;;;25.20;41.94;101481.03;5051272;28;20033;-75
2023/06/14 04:27:35;;;;;;;9.02;4.43;;;;;;;25.44;42.33;101480.06;5050113;28;20123;-74
2023/06/14 04:30:02;;;;;;;6.45;4.18;;;;;;;25.64;41.33;101484.06;5041063;28;20033;-74
2023/06/14 04:32:38;;;;;;;11.40;4.82;;;;;;;26.02;41.77;101490.50;5044898;28;20576;-75
2023/06/14 04:35:11;;;;;;;11.05;4.45;;;;;;;26.45;41.22;101484.50;5054468;28;20152;-73
2023/06/14 04:37:43;;;;;;;11.02;4.38;;;;;;;26.84;39.48;101495.22;5059354;28;20127;-74
2023/06/14 04:40:11;;;;;;;9.18;4.18;;;;;;;27.14;39.37;101498.81;5049579;28;20143;-74
2023/06/14 04:42:38;;;;;;;8.48;4.30;;;;;;;27.42;38.64;101488.03;5060978;28;20044;-75
2023/06/14 04:45:12;;;;;;;8.53;4.33;;;;;;;27.79;38.00;101502.59;5024956;28;20045;-76
2023/06/14 04:47:43;;;;;;;8.05;3.90;;;;;;;28.54;37.09;101495.72;5057692;28;20041;-74
2023/06/14 04:50:12;;;;;;;6.43;3.75;;;;;;;28.24;37.16;101498.63;5045325;28;20845;-74
2023/06/14 04:52:41;;;;;;;10.55;5.00;;;;;;;28.52;36.59;101503.31;5027499;28;20041;-74
2023/06/14 04:55:11;;;;;;;6.82;3.80;;;;;;;27.91;36.91;101506.50;5037784;28;20521;-73
2023/06/14 04:57:38;;;;;;;11.52;3.85;;;;;;;27.26;36.63;101507.41;5047170;28;20033;-74
2023/06/14 05:00:12;;;;;;;9.27;4.10;;;;;;;25.65;38.23;101509.47;5046190;28;20033;-75
2023/06/14 05:02:41;;;;;;;8.02;4.28;;;;;;;25.65;39.26;101504.88;5052790;28;20040;-73
2023/06/14 05:05:07;;;;;;;6.97;3.80;;;;;;;25.89;38.76;101511.25;5066150;28;20552;-73
2023/06/14 05:07:33;;;;;;;10.52;4.10;;;;;;;26.06;38.24;101510.13;5043982;28;20029;-76
2023/06/14 05:09:59;;;;;;;8.75;4.63;;;;;;;25.73;39.34;101514.91;5047245;28;20029;-71
2023/06/14 05:12:26;;;;;;;11.20;4.25;;;;;;;26.31;39.43;101513.50;5065652;28;20039;-71
2023/06/14 05:14:51;;;;;;;12.57;4.00;;;;;;;26.55;38.08;101505.06;5064920;28;20124;-70
2023/06/14 05:17:20;;;;;;;11.57;4.03;;;;;;;25.80;40.07;101521.38;5061764;28;20114;-71
2023/06/14 05:19:46;;;;;;;10.20;4.18;;;;;;;26.35;38.76;101523.00;5052488;28;20573;-71
2023/06/14 05:22:11;;;;;;;5.93;4.10;;;;;;;26.08;38.42;101517.09;5061535;28;20029;-70
2023/06/14 05:24:37;;;;;;;6.47;4.00;;;;;;;26.66;38.25;101520.22;5047573;28;20037;-71
2023/06/14 05:27:03;;;;;;;9.05;4.00;;;;;;;26.73;38.18;101512.09;5066752;28;20367;-71
2023/06/14 05:29:28;;;;;;;10.60;4.20;;;;;;;26.39;37.21;101513.41;5062964;28;20094;-71
2023/06/14 05:31:54;;;;;;;7.90;3.70;;;;;;;25.48;39.42;101515.03;5060450;28;20036;-71
2023/06/14 05:34:19;;;;;;;6.30;3.63;;;;;;;25.64;38.71;101524.19;5058119;28;20847;-71
2023/06/14 05:36:45;;;;;;;7.30;3.58;;;;;;;25.10;39.88;101529.53;5061237;28;20769;-72
2023/06/14 05:39:11;;;;;;;7.15;3.90;;;;;;;25.13;40.29;101535.50;5064895;28;20044;-71
2023/06/14 05:41:36;;;;;;;6.55;4.15;;;;;;;25.51;39.80;101533.81;5065952;28;20044;-71
2023/06/14 05:44:02;;;;;;;6.50;4.20;;;;;;;24.42;41.35;101537.13;5067337;28;20041;-71
2023/06/14 05:46:28;;;;;;;8.45;4.22;;;;;;;24.72;41.17;101545.63;5067807;28;20059;-71
2023/06/14 05:48:54;;;;;;;5.10;4.05;;;;;;;24.78;41.19;101544.94;5062515;28;20040;-71
2023/06/14 05:51:21;;;;;;;10.77;3.65;;;;;;;24.39;41.83;101537.47;5048959;28;20118;-71
2023/06/14 05:53:47;;;;;;;7.38;3.67;;;;;;;24.83;40.92;101538.97;5065118;28;20043;-71
2023/06/14 05:56:14;;;;;;;8.68;3.83;;;;;;;24.49;41.78;101551.78;5049630;28;20331;-71
2023/06/14 05:58:41;;;;;;;8.07;4.43;;;;;;;24.33;41.22;101554.47;5061492;28;20041;-70
2023/06/14 06:01:07;;;;;;;8.60;4.22;;;;;;;24.68;41.27;101547.84;5040904;28;20032;-71
2023/06/14 06:03:35;;;;;;;8.98;4.20;;;;;;;24.63;42.05;101552.13;5051478;28;20133;-71
2023/06/14 06:06:02;;;;;;;8.00;4.05;;;;;;;23.93;43.04;101553.41;5058806;28;20037;-71
2023/06/14 06:08:29;;;;;;;8.65;4.00;;;;;;;24.21;42.22;101551.25;5065038;28;20571;-71
2023/06/14 06:10:55;;;;;;;6.97;3.58;;;;;;;25.06;41.49;101564.50;5056543;28;20033;-71
2023/06/14 06:13:20;;;;;;;9.32;4.03;;;;;;;24.82;42.10;101562.66;5056347;28;20037;-71
2023/06/14 06:15:46;;;;;;;8.07;4.22;;;;;;;24.13;41.49;101564.00;5058112;28;20117;-71
2023/06/14 06:18:12;;;;;;;7.32;4.10;;;;;;;23.63;42.23;101571.19;5059138;28;20041;-71
2023/06/14 06:20:39;;;;;;;5.75;3.90;;;;;;;24.17;43.27;101566.22;5059120;28;20044;-71
2023/06/14 06:23:09;;;;;;;7.40;4.15;;;;;;;23.84;43.74;101573.47;5046686;28;20044;-70
2023/06/14 06:25:36;;;;;;;7.50;3.85;;;;;;;24.21;43.47;101561.28;5047996;28;20033;-71
2023/06/14 06:28:02;;;;;;;7.43;3.83;;;;;;;24.68;43.54;101575.13;5059845;28;20069;-71
2023/06/14 06:30:27;;;;;;;7.05;3.88;;;;;;;24.67;41.94;101572.56;5054958;28;20032;-71
2023/06/14 06:32:53;;;;;;;6.03;4.00;;;;;;;23.99;43.23;101576.41;5062561;28;20040;-71
2023/06/14 06:35:18;;;;;;;8.25;3.90;;;;;;;23.91;43.69;101585.41;5054414;28;20045;-71
2023/06/14 06:37:44;;;;;;;9.35;3.97;;;;;;;24.45;42.24;101577.69;5060994;28;20052;-71
2023/06/14 06:40:12;;;;;;;6.55;3.78;;;;;;;24.08;42.65;101596.34;5063137;28;20029;-70
2023/06/14 06:42:37;;;;;;;4.28;3.25;;;;;;;23.87;43.17;101592.22;5043961;28;20163;-71
2023/06/14 06:45:07;;;;;;;5.32;3.40;;;;;;;24.51;42.35;101592.53;5023028;28;20089;-71
2023/06/14 06:47:32;;;;;;;6.72;3.25;;;;;;;24.17;43.56;101593.47;5062653;28;20037;-70
2023/06/14 06:49:58;;;;;;;8.55;3.65;;;;;;;24.73;42.70;101599.16;5068051;28;20032;-70
2023/06/14 06:52:23;;;;;;;8.23;3.50;;;;;;;25.05;41.93;101595.53;5040837;28;20763;-71
2023/06/14 06:54:50;;;;;;;7.22;3.35;;;;;;;24.95;41.02;101598.47;5058617;28;20485;-70
2023/06/14 06:57:16;;;;;;;4.07;3.40;;;;;;;24.65;41.52;101602.75;5060765;28;20148;-70
2023/06/14 06:59:41;;;;;;;9.90;2.65;;;;;;;24.84;40.92;101590.63;5038343;28;20036;-70
2023/06/14 07:02:07;;;;;;;7.60;3.05;;;;;;;24.37;40.98;101601.38;5061425;28;20037;-70
2023/06/14 07:04:32;;;;;;;6.50;2.72;;;;;;;24.44;40.97;101597.78;5065415;28;20399;-71
2023/06/14 07:06:58;;;;;;;4.72;2.40;;;;;;;24.71;41.50;101610.25;5038468;28;20394;-70
2023/06/14 07:09:24;;;;;;;4.63;2.65;;;;;;;24.71;41.37;101615.72;5069869;28;20383;-70
2023/06/14 07:11:50;;;;;;;5.68;2.78;;;;;;;24.95;41.50;101616.69;5054490;28;20045;-70
2023/06/14 07:14:15;;;;;;;5.80;2.90;;;;;;;24.41;41.16;101621.84;5040480;28;20052;-70
2023/06/14 07:16:42;;;;;;;4.68;2.50;;;;;;;24.63;41.80;101620.31;5038637;28;20048;-70
2023/06/14 07:19:09;;;;;;;7.05;2.65;;;;;;;24.55;42.54;101621.16;5034770;28;21413;-70
2023/06/14 07:21:37;;;;;;;4.88;2.45;;;;;;;24.84;40.11;101615.19;5038086;28;20541;-72
2023/06/14 07:24:03;;;;;;;7.22;3.13;;;;;;;24.83;39.95;101618.94;5052541;28;20102;-70
2023/06/14 07:26:29;;;;;;;3.90;2.20;;;;;;;25.42;40.06;101626.88;5060441;28;20029;-70
2023/06/14 07:28:55;;;;;;;9.98;2.80;;;;;;;24.73;40.20;101624.56;5066108;28;20037;-70
2023/06/14 07:31:21;;;;;;;5.97;2.47;;;;;;;24.80;40.14;101622.88;5064046;28;20040;-72
2023/06/14 07:33:46;;;;;;;5.00;2.28;;;;;;;24.60;39.12;101615.19;5059959;28;20029;-69
2023/06/14 07:36:12;;;;;;;3.50;2.35;;;;;;;25.36;39.22;101624.88;5067716;28;20526;-72
2023/06/14 07:38:37;;;;;;;4.40;2.33;;;;;;;25.32;39.90;101635.28;5070984;28;20056;-70
2023/06/14 07:41:04;;;;;;;7.90;2.47;;;;;;;24.78;40.35;101634.97;5058273;28;20044;-70
2023/06/14 07:43:30;;;;;;;6.50;2.30;;;;;;;25.02;40.18;101634.09;5065188;28;20032;-70
2023/06/14 07:45:56;;;;;;;4.18;2.53;;;;;;;25.27;39.88;101627.59;5071466;28;20884;-72
2023/06/14 07:48:22;;;;;;;6.22;2.58;;;;;;;25.26;39.37;101644.16;5066785;28;20513;-69
2023/06/14 07:50:48;;;;;;;6.88;3.28;;;;;;;24.88;39.37;101629.34;5064608;28;20116;-72
2023/06/14 07:53:14;;;;;;;9.18;3.10;;;;;;;25.18;38.34;101625.06;5066658;28;20041;-72
2023/06/14 07:55:43;;;;;;;9.15;2.90;;;;;;;25.28;40.24;101632.03;5056896;28;20087;-69
2023/06/14 07:58:10;;;;;;;6.55;2.63;;;;;;;25.35;39.26;101637.63;5067875;28;20083;-72
2023/06/14 08:00:36;;;;;;;9.65;3.03;;;;;;;25.16;41.07;101636.16;5062770;28;20029;-70
2023/06/14 08:03:02;;;;;;;4.28;2.72;;;;;;;25.45;37.74;101635.59;5070157;28;20039;-76
2023/06/14 08:05:28;;;;;;;5.85;2.45;;;;;;;25.43;39.13;101642.25;5066903;28;20059;-76
2023/06/14 08:07:54;;;;;;;5.57;2.58;;;;;;;25.49;37.81;101644.25;5067458;28;20037;-76
2023/06/14 08:10:21;;;;;;;5.95;2.65;;;;;;;25.74;37.80;101632.22;5073496;28;20568;-76
2023/06/14 08:12:46;;;;;;;6.55;2.97;;;;;;;25.53;38.25;101641.00;5048340;28;20355;-78
2023/06/14 08:15:12;;;;;;;5.50;2.50;;;;;;;25.64;39.88;101633.47;5049051;28;20072;-79
2023/06/14 08:17:40;;;;;;;3.40;2.85;;;;;;;25.48;39.22;101628.91;5067024;28;20120;-77
2023/06/14 08:20:07;;;;;;;8.73;2.67;;;;;;;25.08;38.31;101636.16;5049719;28;20109;-77
2023/06/14 08:22:37;;;;;;;7.10;2.70;;;;;;;25.53;40.58;101637.44;5034223;28;20041;-77
2023/06/14 08:25:07;;;;;;;5.20;2.42;;;;;;;25.81;39.10;101635.13;5042890;28;20080;-76
2023/06/14 08:27:32;;;;;;;9.93;3.00;;;;;;;25.01;40.27;101635.97;5062471;28;20029;-77
2023/06/14 08:29:57;;;;;;;6.00;2.63;;;;;;;25.31;39.82;101633.56;5069364;28;20432;-76
2023/06/14 08:32:23;;;;;;;7.85;2.70;;;;;;;24.40;39.01;101633.72;5069560;28;20041;-72
2023/06/14 08:34:48;;;;;;;4.70;2.42;;;;;;;24.79;39.51;101636.66;5073094;28;20135;-76
2023/06/14 08:37:15;;;;;;;12.40;2.50;;;;;;;24.60;38.75;101637.88;5054989;28;20076;-77
2023/06/14 08:39:42;;;;;;;4.78;2.25;;;;;;;25.22;37.96;101626.44;5064967;28;20044;-75
2023/06/14 08:42:11;;;;;;;5.10;2.42;;;;;;;25.41;38.92;101622.47;5063153;28;20048;-76
2023/06/14 08:44:36;;;;;;;7.15;2.45;;;;;;;25.49;39.59;101630.59;5071119;28;20028;-76
2023/06/14 08:47:05;;;;;;;5.75;3.13;;;;;;;25.35;39.83;101643.09;5063526;28;20115;-76
2023/06/14 08:49:32;;;;;;;3.63;2.60;;;;;;;25.55;39.51;101627.16;5046904;28;20025;-75
2023/06/14 08:51:59;;;;;;;7.60;3.00;;;;;;;25.23;40.73;101634.44;5040716;28;20033;-78
2023/06/14 08:54:34;;;;;;;3.70;2.25;;;;;;;24.90;38.54;101627.28;5053227;28;20028;-74
2023/06/14 08:57:00;;;;;;;4.88;2.40;;;;;;;25.33;38.05;101631.50;5071513;28;20045;-76
2023/06/14 08:59:28;;;;;;;6.60;2.35;;;;;;;24.82;39.41;101633.59;5050159;28;20049;-74
2023/06/14 09:01:54;;;;;;;6.03;2.50;;;;;;;24.65;39.50;101623.69;5057223;28;20036;-75
2023/06/14 09:04:29;;;;;;;4.93;2.33;;;;;;;25.21;39.03;101630.19;5064082;28;20040;-74
2023/06/14 09:06:55;;;;;;;3.00;2.10;;;;;;;25.00;38.38;101628.81;5067378;28;20047;-76
2023/06/14 09:09:22;;;;;;;4.22;2.38;;;;;;;25.35;39.27;101628.59;5065232;28;20040;-77
2023/06/14 09:11:50;;;;;;;5.70;2.10;;;;;;;25.09;39.56;101626.94;5063861;28;20036;-72
2023/06/14 09:14:16;;;;;;;5.72;2.10;;;;;;;25.18;38.96;101614.13;5057432;28;20068;-72
2023/06/14 09:16:41;;;;;;;7.25;2.20;;;;;;;24.99;39.93;101629.81;5049648;28;20036;-73
2023/06/14 09:19:10;;;;;;;6.85;2.47;;;;;;;24.77;39.62;101628.66;5060173;28;20045;-75
2023/06/14 09:21:37;;;;;;;3.45;1.98;;;;;;;24.81;40.09;101623.72;5024369;28;20025;-75
2023/06/14 09:24:04;;;;;;;3.78;1.98;;;;;;;25.20;40.94;101623.88;5058529;28;20028;-76
2023/06/14 09:26:30;;;;;;;4.13;2.35;;;;;;;25.49;40.82;101622.41;5064171;28;20244;-72
2023/06/14 09:28:55;;;;;;;4.53;2.30;;;;;;;25.81;40.02;101638.72;5065436;28;20056;-76
2023/06/14 09:31:21;;;;;;;5.32;2.53;;;;;;;24.98;40.92;101630.84;5062058;28;20037;-74
2023/06/14 09:33:50;;;;;;;4.15;2.25;;;;;;;24.80;40.46;101641.97;5065308;28;20111;-72
2023/06/14 09:36:24;;;;;;;3.78;2.55;;;;;;;24.83;40.02;101638.03;5059829;28;20037;-77
2023/06/14 09:39:00;;;;;;;3.75;2.47;;;;;;;25.09;40.28;101640.59;5066033;28;20057;-75
2023/06/14 09:41:42;;;;;;;6.30;2.33;;;;;;;24.61;39.92;101647.75;5038946;28;20033;-78
2023/06/14 09:44:12;;;;;;;5.03;2.10;;;;;;;25.05;37.58;101639.19;5041908;28;21081;-75
2023/06/14 09:46:41;;;;;;;4.70;2.10;;;;;;;25.24;39.81;101638.00;5056507;28;20096;-77
2023/06/14 09:49:08;;;;;;;8.43;2.08;;;;;;;24.94;39.16;101639.56;5066453;28;20044;-76
2023/06/14 09:51:42;;;;;;;4.10;2.00;;;;;;;25.57;40.68;101636.91;5047099;28;20037;-77
2023/06/14 09:54:15;;;;;;;3.80;2.20;;;;;;;24.85;38.46;101636.00;5059992;28;20032;-77
2023/06/14 09:56:44;;;;;;;3.17;1.60;;;;;;;25.17;39.36;101645.19;5054672;28;20036;-77
2023/06/14 09:59:16;;;;;;;3.28;1.50;;;;;;;25.36;38.44;101641.25;5063100;28;20036;-76
2023/06/14 10:01:43;;;;;;;2.75;2.15;;;;;;;24.73;38.50;101635.47;5050944;28;20833;-78
2023/06/14 10:04:11;;;;;;;7.45;2.13;;;;;;;25.02;37.62;101645.03;5063203;28;20041;-77
2023/06/14 10:06:43;;;;;;;9.05;2.33;;;;;;;25.18;36.80;101636.84;5067003;28;20033;-76
2023/06/14 10:09:11;;;;;;;1.85;1.70;;;;;;;25.35;37.67;101639.50;5063525;28;20142;-76
2023/06/14 10:11:43;;;;;;;6.53;2.33;;;;;;;25.40;37.57;101637.97;5067474;28;20458;-74
2023/06/14 10:14:12;;;;;;;3.95;1.85;;;;;;;25.15;37.44;101637.19;5039495;28;20548;-75
2023/06/14 10:17:03;;;;;;;4.05;2.17;;;;;;;25.13;38.42;101641.09;5065001;28;21162;-74
2023/06/14 10:19:58;;;;;;;4.63;2.92;;;;;;;25.20;37.31;101636.66;5056164;28;20033;-76
2023/06/14 10:22:41;;;;;;;4.43;1.80;;;;;;;24.93;39.07;101637.84;5058855;28;20596;-75
2023/06/14 10:25:13;;;;;;;3.70;2.00;;;;;;;25.61;37.23;101640.13;5067623;28;20514;-77
2023/06/14 10:27:45;;;;;;;7.38;2.30;;;;;;;25.21;36.77;101633.78;5066836;28;20121;-77
2023/06/14 10:30:16;;;;;;;2.20;1.90;;;;;;;24.91;37.04;101638.03;5057149;28;20029;-78
2023/06/14 10:33:06;;;;;;;4.88;2.38;;;;;;;25.14;38.00;101640.06;5065570;28;20046;-77
2023/06/14 10:35:32;;;;;;;9.90;2.17;;;;;;;25.22;38.64;101637.34;5064044;28;20075;-75
2023/06/14 10:38:11;;;;;;;7.80;2.42;;;;;;;24.75;38.39;101630.72;5068125;28;20051;-77
2023/06/14 10:40:40;;;;;;;6.78;2.50;;;;;;;24.62;38.46;101622.19;5065344;28;20045;-77
2023/06/14 10:43:25;;;;;;;5.80;2.38;;;;;;;24.80;39.96;101635.66;5030358;28;20040;-73
2023/06/14 10:46:22;;;;;;;7.05;2.63;;;;;;;25.01;37.52;101633.25;5073393;28;20128;-76
2023/06/14 10:48:48;;;;;;;8.75;2.17;;;;;;;25.07;36.80;101631.75;5071318;28;20553;-74
2023/06/14 10:51:20;;;;;;;8.32;2.58;;;;;;;24.91;37.92;101651.69;5070541;28;20044;-75
2023/06/14 10:53:50;;;;;;;6.70;2.63;;;;;;;25.16;36.71;101641.63;5058681;28;20105;-74
2023/06/14 10:56:30;;;;;;;4.45;2.22;;;;;;;25.02;38.06;101631.38;5056961;28;20032;-75
2023/06/14 10:58:57;;;;;;;2.65;2.20;;;;;;;24.66;37.60;101630.88;5058171;28;20040;-74
2023/06/14 11:01:49;;;;;;;3.58;2.42;;;;;;;24.83;37.16;101635.31;5036554;28;20049;-78
2023/06/14 11:04:20;;;;;;;2.72;2.50;;;;;;;24.91;37.86;101632.59;5058104;28;20041;-73
2023/06/14 11:06:53;;;;;;;4.40;2.40;;;;;;;25.03;38.66;101636.66;5059139;28;20151;-73
2023/06/14 11:09:32;;;;;;;7.18;2.58;;;;;;;25.19;37.24;101632.22;5057956;28;20143;-76
2023/06/14 11:12:00;;;;;;;4.97;2.22;;;;;;;24.70;38.35;101630.38;5039688;28;20118;-75
2023/06/14 11:14:32;;;;;;;6.15;2.30;;;;;;;25.11;38.68;101638.56;5058420;28;20116;-74
2023/06/14 11:16:58;;;;;;;;;;;;;;;25.15;36.38;101625.41;5060346;28;20040;-76
2023/06/14 11:19:25;;;;;;;3.80;2.00;;;;;;;24.88;38.39;101635.63;5044023;28;19928;-76
2023/06/14 11:21:50;;;;;;;6.88;2.50;;;;;;;24.91;37.92;101638.03;5039504;28;20736;-76
2023/06/14 11:24:17;;;;;;;2.33;2.13;;;;;;;25.04;38.89;101638.34;5057621;28;20056;-77
2023/06/14 11:26:42;;;;;;;5.85;2.47;;;;;;;24.78;39.20;101646.72;5039246;28;20699;-78
2023/06/14 11:29:15;;;;;;;6.03;2.67;;;;;;;24.67;38.91;101638.03;5057297;28;20036;-75